createdAt,value
2022-08-28T00:00:13.021Z,28.30
2022-08-28T00:02:41.042Z,28.42
2022-08-28T00:05:10.883Z,28.42
2022-08-28T00:07:42.295Z,29.17
2022-08-28T00:10:12.991Z,29.65
2022-08-28T00:12:40.482Z,28.87
2022-08-28T00:15:11.949Z,29.05
2022-08-28T00:17:41.101Z,29.85
2022-08-28T00:20:11.309Z,28.83
2022-08-28T00:22:41.336Z,30.02
2022-08-28T00:25:10.454Z,29.08
2022-08-28T00:27:38.313Z,30.08
2022-08-28T00:30:06.494Z,29.45
2022-08-28T00:32:33.930Z,29.73
2022-08-28T00:35:01.739Z,29.30
2022-08-28T00:37:29.406Z,27.77
2022-08-28T00:39:58.324Z,30.23
2022-08-28T00:42:25.806Z,30.23
2022-08-28T00:44:53.259Z,28.42
2022-08-28T00:47:20.754Z,29.52
2022-08-28T00:49:53.191Z,30.88
2022-08-28T00:52:22.803Z,30.08
2022-08-28T00:57:34.326Z,28.88
2022-08-28T01:00:02.424Z,29.95
2022-08-28T01:02:30.022Z,30.00
2022-08-28T01:04:57.561Z,29.92
2022-08-28T01:07:25.264Z,29.77
2022-08-28T01:09:54.903Z,29.20
2022-08-28T01:14:55.115Z,28.75
2022-08-28T01:17:24.986Z,30.33
2022-08-28T01:19:55.309Z,29.35
2022-08-28T01:22:29.234Z,28.60
2022-08-28T01:25:02.311Z,29.60
2022-08-28T01:27:29.837Z,29.10
2022-08-28T01:29:57.381Z,29.83
2022-08-28T01:32:31.016Z,29.42
2022-08-28T01:34:58.622Z,30.45
2022-08-28T01:37:26.123Z,29.95
2022-08-28T01:39:53.600Z,30.48
2022-08-28T01:42:22.476Z,29.48
2022-08-28T01:44:49.904Z,31.70
2022-08-28T01:47:17.343Z,31.27
2022-08-28T01:49:44.769Z,31.77
2022-08-28T01:52:12.205Z,34.38
2022-08-28T01:54:39.725Z,34.88
2022-08-28T01:57:08.322Z,34.35
2022-08-28T01:59:37.181Z,35.60
2022-08-28T02:02:05.425Z,33.40
2022-08-28T02:04:32.985Z,31.83
2022-08-28T02:07:00.455Z,34.03
2022-08-28T02:09:27.953Z,32.65
2022-08-28T02:11:55.348Z,31.85
2022-08-28T02:14:22.782Z,30.85
2022-08-28T02:16:51.762Z,33.60
2022-08-28T02:19:19.457Z,33.58
2022-08-28T02:21:47.754Z,33.13
2022-08-28T02:24:15.183Z,33.85
2022-08-28T02:26:42.813Z,36.78
2022-08-28T02:29:10.235Z,38.58
2022-08-28T02:31:37.762Z,37.60
2022-08-28T02:34:07.199Z,34.90
2022-08-28T02:36:34.626Z,33.70
2022-08-28T02:39:02.055Z,33.30
2022-08-28T02:41:29.458Z,42.10
2022-08-28T02:43:56.894Z,45.65
2022-08-28T02:46:24.352Z,54.38
2022-08-28T02:48:51.803Z,45.45
2022-08-28T02:51:20.630Z,46.25
2022-08-28T02:53:48.403Z,33.33
2022-08-28T02:56:15.797Z,31.92
2022-08-28T02:58:43.424Z,33.42
2022-08-28T03:01:12.903Z,33.30
2022-08-28T03:03:41.395Z,32.58
2022-08-28T03:06:10.328Z,34.47
2022-08-28T03:08:39.605Z,31.83
2022-08-28T03:11:07.076Z,30.70
2022-08-28T03:13:34.529Z,30.90
2022-08-28T03:16:02.351Z,30.73
2022-08-28T03:18:29.789Z,30.88
2022-08-28T03:20:57.311Z,32.58
2022-08-28T03:23:24.776Z,31.38
2022-08-28T03:25:54.483Z,30.35
2022-08-28T03:28:22.022Z,29.00
2022-08-28T03:30:49.499Z,29.05
2022-08-28T03:33:17.031Z,29.05
2022-08-28T03:35:44.429Z,29.38
2022-08-28T03:38:12.210Z,29.80
2022-08-28T03:40:41.572Z,27.17
2022-08-28T03:43:12.696Z,25.88
2022-08-28T03:45:41.138Z,25.38
2022-08-28T03:48:08.746Z,25.00
2022-08-28T03:50:36.787Z,25.15
2022-08-28T03:53:04.361Z,23.83
2022-08-28T03:55:31.831Z,24.50
2022-08-28T03:58:01.625Z,24.55
2022-08-28T04:00:30.493Z,25.48
2022-08-28T04:02:57.956Z,25.95
2022-08-28T04:05:25.381Z,25.73
2022-08-28T04:07:52.804Z,24.33
2022-08-28T04:10:20.257Z,25.42
2022-08-28T04:12:47.806Z,24.67
2022-08-28T04:15:15.253Z,25.05
2022-08-28T04:17:44.218Z,26.80
2022-08-28T04:20:11.921Z,26.65
2022-08-28T04:22:39.620Z,24.65
2022-08-28T04:25:08.330Z,25.48
2022-08-28T04:27:35.971Z,26.03
2022-08-28T04:30:04.390Z,25.80
2022-08-28T04:32:34.779Z,25.27
2022-08-28T04:35:05.375Z,26.13
2022-08-28T04:37:33.322Z,26.30
2022-08-28T04:40:00.797Z,25.45
2022-08-28T04:42:28.249Z,25.92
2022-08-28T04:44:56.446Z,25.95
2022-08-28T04:47:23.913Z,27.02
2022-08-28T04:49:51.354Z,25.98
2022-08-28T04:52:20.264Z,25.23
2022-08-28T04:54:47.675Z,26.38
2022-08-28T04:57:15.114Z,26.55
2022-08-28T04:59:42.522Z,26.58
2022-08-28T05:02:10.037Z,26.23
2022-08-28T05:04:37.517Z,26.83
2022-08-28T05:07:05.085Z,28.55
2022-08-28T05:09:34.375Z,29.13
2022-08-28T05:12:03.261Z,27.00
2022-08-28T05:14:31.432Z,26.33
2022-08-28T05:16:59.177Z,26.95
2022-08-28T05:19:27.690Z,27.58
2022-08-28T05:21:55.607Z,28.65
2022-08-28T05:24:23.017Z,28.48
2022-08-28T05:26:51.960Z,27.88
2022-08-28T05:29:19.356Z,27.80
2022-08-28T05:31:46.911Z,28.48
2022-08-28T05:34:14.590Z,28.10
2022-08-28T05:36:42.216Z,24.92
2022-08-28T05:39:11.581Z,24.95
2022-08-28T05:41:41.173Z,24.63
2022-08-28T05:44:12.423Z,18.05
2022-08-28T05:46:42.369Z,16.17
2022-08-28T05:49:10.546Z,15.75
2022-08-28T05:51:40.590Z,15.77
2022-08-28T05:54:08.824Z,15.13
2022-08-28T05:56:38.655Z,15.02
2022-08-28T05:59:07.406Z,13.73
2022-08-28T06:01:38.555Z,13.57
2022-08-28T06:04:08.689Z,13.05
2022-08-28T06:06:37.632Z,15.88
2022-08-28T06:09:07.679Z,14.45
2022-08-28T06:11:35.536Z,12.88
2022-08-28T06:14:04.009Z,14.05
2022-08-28T06:16:32.610Z,14.32
2022-08-28T06:19:01.518Z,13.73
2022-08-28T06:21:29.237Z,14.52
2022-08-28T06:23:56.768Z,14.68
2022-08-28T06:26:24.236Z,15.18
2022-08-28T06:28:51.981Z,16.45
2022-08-28T06:31:25.086Z,17.25
2022-08-28T06:33:54.321Z,14.40
2022-08-28T06:36:23.361Z,15.05
2022-08-28T06:38:50.808Z,15.93
2022-08-28T06:41:18.445Z,16.77
2022-08-28T06:43:45.848Z,15.77
2022-08-28T06:46:13.426Z,16.45
2022-08-28T06:48:40.869Z,15.75
2022-08-28T06:51:10.108Z,15.88
2022-08-28T06:53:41.320Z,17.65
2022-08-28T06:56:10.814Z,18.00
2022-08-28T06:58:43.478Z,16.40
2022-08-28T07:01:22.024Z,14.82
2022-08-28T07:03:50.461Z,15.38
2022-08-28T07:06:18.476Z,14.48
2022-08-28T07:08:48.140Z,14.43
2022-08-28T07:13:45.298Z,16.00
2022-08-28T07:16:14.540Z,14.40
2022-08-28T07:18:42.261Z,15.18
2022-08-28T07:21:12.467Z,16.17
2022-08-28T07:23:41.880Z,15.30
2022-08-28T07:26:12.767Z,16.00
2022-08-28T07:28:40.851Z,14.48
2022-08-28T07:31:10.254Z,12.40
2022-08-28T07:33:38.350Z,13.10
2022-08-28T07:36:06.993Z,12.13
2022-08-28T07:38:34.833Z,10.57
2022-08-28T07:41:02.269Z,10.30
2022-08-28T07:43:31.121Z,10.50
2022-08-28T07:45:59.735Z,10.77
2022-08-28T07:48:27.492Z,9.40
2022-08-28T07:50:55.110Z,9.45
2022-08-28T07:53:22.750Z,8.63
2022-08-28T07:55:51.194Z,8.35
2022-08-28T07:58:18.927Z,12.32
2022-08-28T08:00:48.215Z,11.52
2022-08-28T08:03:15.660Z,11.68
2022-08-28T08:05:53.242Z,10.40
2022-08-28T08:08:21.068Z,10.68
2022-08-28T08:10:57.519Z,10.63
2022-08-28T08:13:25.043Z,10.00
2022-08-28T08:15:53.963Z,9.27
2022-08-28T08:18:21.432Z,10.20
2022-08-28T08:20:51.620Z,9.85
2022-08-28T08:23:19.041Z,8.90
2022-08-28T08:25:54.988Z,9.10
2022-08-28T08:28:22.901Z,9.30
2022-08-28T08:30:50.479Z,9.15
2022-08-28T08:33:19.352Z,8.48
2022-08-28T08:35:46.775Z,9.57
2022-08-28T08:38:14.336Z,6.85
2022-08-28T08:40:42.030Z,6.70
2022-08-28T08:43:10.156Z,6.15
2022-08-28T08:45:40.394Z,6.18
2022-08-28T08:48:26.708Z,6.70
2022-08-28T08:50:55.378Z,6.50
2022-08-28T08:53:31.068Z,6.43
2022-08-28T08:55:58.625Z,6.57
2022-08-28T08:58:30.213Z,6.00
2022-08-28T09:01:03.756Z,5.80
2022-08-28T09:03:49.569Z,5.43
2022-08-28T09:06:29.545Z,5.60
2022-08-28T09:09:00.686Z,5.25
2022-08-28T09:11:43.889Z,5.28
2022-08-28T09:14:19.585Z,6.07
2022-08-28T09:16:48.331Z,6.00
2022-08-28T09:19:20.192Z,6.18
2022-08-28T09:21:48.696Z,7.90
2022-08-28T09:24:22.288Z,6.88
2022-08-28T09:26:59.247Z,9.15
2022-08-28T09:29:30.288Z,7.60
2022-08-28T09:31:58.427Z,8.43
2022-08-28T09:34:33.382Z,7.85
2022-08-28T09:37:03.329Z,7.30
2022-08-28T09:39:32.071Z,7.50
2022-08-28T09:42:04.351Z,5.53
2022-08-28T09:44:31.876Z,5.88
2022-08-28T09:46:59.453Z,6.38
2022-08-28T09:49:30.382Z,6.95
2022-08-28T09:51:59.004Z,7.25
2022-08-28T09:54:32.975Z,8.30
2022-08-28T09:57:01.381Z,6.53
2022-08-28T09:59:29.926Z,5.65
2022-08-28T10:02:13.437Z,6.95
2022-08-28T10:04:58.029Z,7.90
2022-08-28T10:07:36.717Z,6.00
2022-08-28T10:10:18.021Z,5.67
2022-08-28T10:12:57.613Z,7.05
2022-08-28T10:18:25.544Z,4.75
2022-08-28T10:21:04.068Z,5.03
2022-08-28T10:23:40.233Z,6.93
2022-08-28T10:26:29.198Z,5.78
2022-08-28T10:29:06.805Z,6.15
2022-08-28T10:31:42.975Z,5.00
2022-08-28T10:34:27.410Z,5.65
2022-08-28T10:37:04.919Z,4.00
2022-08-28T10:39:45.843Z,4.70
2022-08-28T10:42:18.500Z,6.03
2022-08-28T10:44:52.623Z,4.90
2022-08-28T10:47:21.702Z,6.50
2022-08-28T10:49:53.435Z,5.90
2022-08-28T10:52:28.457Z,5.90
2022-08-28T10:55:03.193Z,6.07
2022-08-28T10:57:39.546Z,6.63
2022-08-28T11:00:10.573Z,5.95
2022-08-28T11:02:41.158Z,6.38
2022-08-28T11:05:09.398Z,6.47
2022-08-28T11:07:42.386Z,7.32
2022-08-28T11:10:20.185Z,6.55
2022-08-28T11:12:49.615Z,7.30
2022-08-28T11:15:46.360Z,6.85
2022-08-28T11:18:48.766Z,6.63
2022-08-28T11:21:23.878Z,4.78
2022-08-28T11:24:00.230Z,4.85
2022-08-28T11:26:34.163Z,5.80
2022-08-28T11:29:02.144Z,5.97
2022-08-28T11:31:39.111Z,8.10
2022-08-28T11:34:08.454Z,6.53
2022-08-28T11:37:02.306Z,5.40
2022-08-28T11:39:31.748Z,5.40
2022-08-28T11:42:35.454Z,6.13
2022-08-28T11:45:03.627Z,4.72
2022-08-28T11:47:45.455Z,4.40
2022-08-28T11:50:20.606Z,4.32
2022-08-28T11:53:14.746Z,5.13
2022-08-28T11:56:00.445Z,3.97
2022-08-28T11:58:38.213Z,4.80
2022-08-28T12:01:09.250Z,4.30
2022-08-28T12:03:40.430Z,4.65
2022-08-28T12:06:08.014Z,4.25
2022-08-28T12:09:08.993Z,5.50
2022-08-28T12:12:02.047Z,5.00
2022-08-28T12:15:01.477Z,4.63
2022-08-28T12:17:46.368Z,4.78
2022-08-28T12:20:23.263Z,7.10
2022-08-28T12:22:54.193Z,5.32
2022-08-28T12:25:33.948Z,6.70
2022-08-28T12:28:13.012Z,6.40
2022-08-28T12:30:56.541Z,5.10
2022-08-28T12:33:31.739Z,5.93
2022-08-28T12:36:02.778Z,6.53
2022-08-28T12:38:32.537Z,6.80
2022-08-28T12:41:00.102Z,5.57
2022-08-28T12:43:38.514Z,5.63
2022-08-28T12:46:19.304Z,5.10
2022-08-28T12:48:52.000Z,4.88
2022-08-28T12:51:22.026Z,5.05
2022-08-28T12:53:52.482Z,5.72
2022-08-28T12:56:22.402Z,5.72
2022-08-28T12:58:51.567Z,5.15
2022-08-28T13:01:26.873Z,5.13
2022-08-28T13:03:57.401Z,4.82
2022-08-28T13:06:29.000Z,4.53
2022-08-28T13:09:03.407Z,4.82
2022-08-28T13:11:34.736Z,4.70
2022-08-28T13:14:04.970Z,4.95
2022-08-28T13:16:39.657Z,5.88
2022-08-28T13:19:13.100Z,5.93
2022-08-28T13:21:51.645Z,4.45
2022-08-28T13:24:37.658Z,5.55
2022-08-28T13:27:09.131Z,6.45
2022-08-28T13:29:48.577Z,6.32
2022-08-28T13:32:18.773Z,6.47
2022-08-28T13:35:28.182Z,7.97
2022-08-28T13:37:57.208Z,6.63
2022-08-28T13:43:16.165Z,7.32
2022-08-28T13:45:47.072Z,7.88
2022-08-28T13:48:16.596Z,7.20
2022-08-28T13:50:47.216Z,6.78
2022-08-28T13:53:16.143Z,7.00
2022-08-28T13:55:43.574Z,5.82
2022-08-28T13:58:10.977Z,7.22
2022-08-28T14:00:43.484Z,6.53
2022-08-28T14:03:12.892Z,7.00
2022-08-28T14:05:40.426Z,7.15
2022-08-28T14:08:07.838Z,6.55
2022-08-28T14:10:35.340Z,7.03
2022-08-28T14:13:02.762Z,6.80
2022-08-28T14:15:30.197Z,6.22
2022-08-28T14:17:57.632Z,7.38
2022-08-28T14:20:26.514Z,6.47
2022-08-28T14:22:53.916Z,7.85
2022-08-28T14:25:21.357Z,6.65
2022-08-28T14:27:48.787Z,5.13
2022-08-28T14:30:16.838Z,7.63
2022-08-28T14:32:44.254Z,7.47
2022-08-28T14:35:11.858Z,6.45
2022-08-28T14:37:40.701Z,7.20
2022-08-28T14:40:09.285Z,6.15
2022-08-28T14:42:36.794Z,5.37
2022-08-28T14:45:04.971Z,5.88
2022-08-28T14:47:32.377Z,5.70
2022-08-28T14:50:00.472Z,5.20
2022-08-28T14:52:28.038Z,5.25
2022-08-28T14:54:56.942Z,5.32
2022-08-28T14:57:24.382Z,5.78
2022-08-28T14:59:51.807Z,5.85
2022-08-28T15:02:19.249Z,6.80
2022-08-28T15:04:46.666Z,6.72
2022-08-28T15:07:14.102Z,5.85
2022-08-28T15:09:43.079Z,5.50
2022-08-28T15:12:12.081Z,5.05
2022-08-28T15:14:39.654Z,5.18
2022-08-28T15:17:07.979Z,5.05
2022-08-28T15:19:35.524Z,5.15
2022-08-28T15:22:02.972Z,5.30
2022-08-28T15:24:32.040Z,6.50
2022-08-28T15:26:59.715Z,7.03
2022-08-28T15:29:29.547Z,6.07
2022-08-28T15:31:58.084Z,6.00
2022-08-28T15:34:27.260Z,5.53
2022-08-28T15:36:56.443Z,6.05
2022-08-28T15:39:24.057Z,5.85
2022-08-28T15:41:51.730Z,5.60
2022-08-28T15:44:19.183Z,6.32
2022-08-28T15:46:53.861Z,5.93
2022-08-28T15:49:23.888Z,5.68
2022-08-28T15:51:52.335Z,5.78
2022-08-28T15:54:19.869Z,6.20
2022-08-28T15:56:50.739Z,6.32
2022-08-28T15:59:21.703Z,5.90
2022-08-28T16:01:54.246Z,6.55
2022-08-28T16:04:21.744Z,6.38
2022-08-28T16:06:49.162Z,6.70
2022-08-28T16:09:27.927Z,6.97
2022-08-28T16:11:55.343Z,7.53
2022-08-28T16:14:22.765Z,7.30
2022-08-28T16:16:50.951Z,7.20
2022-08-28T16:19:19.932Z,7.88
2022-08-28T16:21:47.395Z,8.05
2022-08-28T16:24:14.819Z,7.28
2022-08-28T16:26:42.251Z,6.97
2022-08-28T16:29:09.714Z,7.35
2022-08-28T16:31:37.171Z,7.07
2022-08-28T16:34:05.230Z,7.78
2022-08-28T16:36:34.229Z,7.75
2022-08-28T16:39:04.071Z,7.80
2022-08-28T16:41:32.186Z,8.23
2022-08-28T16:43:59.975Z,10.23
2022-08-28T16:46:27.931Z,11.07
2022-08-28T16:48:55.653Z,13.30
2022-08-28T16:51:23.536Z,15.13
2022-08-28T16:53:52.510Z,16.55
2022-08-28T16:56:20.258Z,17.02
2022-08-28T16:58:47.676Z,19.15
2022-08-28T17:01:21.246Z,20.45
2022-08-28T17:03:52.486Z,20.67
2022-08-28T17:06:23.149Z,20.77
2022-08-28T17:08:56.485Z,19.67
2022-08-28T17:11:25.395Z,18.75
2022-08-28T17:13:52.927Z,17.20
2022-08-28T17:16:21.701Z,15.55
2022-08-28T17:18:52.406Z,15.57
2022-08-28T17:21:20.786Z,14.73
2022-08-28T17:23:48.792Z,14.93
2022-08-28T17:26:18.347Z,14.07
2022-08-28T17:31:13.763Z,13.82
2022-08-28T17:33:42.953Z,14.20
2022-08-28T17:36:28.927Z,14.50
2022-08-28T17:39:00.862Z,12.38
2022-08-28T17:41:29.863Z,12.55
2022-08-28T17:43:57.323Z,11.65
2022-08-28T17:46:24.889Z,12.38
2022-08-28T17:48:56.104Z,11.75
2022-08-28T17:51:33.150Z,12.35
2022-08-28T17:54:10.827Z,11.52
2022-08-28T17:56:39.755Z,11.35
2022-08-28T17:59:07.238Z,11.38
2022-08-28T18:01:34.783Z,12.30
2022-08-28T18:04:02.449Z,12.02
2022-08-28T18:06:29.968Z,11.35
2022-08-28T18:08:57.401Z,13.00
2022-08-28T18:11:24.893Z,13.18
2022-08-28T18:13:53.770Z,11.88
2022-08-28T18:16:21.286Z,11.77
2022-08-28T18:18:48.902Z,12.52
2022-08-28T18:21:16.322Z,12.88
2022-08-28T18:23:43.774Z,12.73
2022-08-28T18:26:11.309Z,13.35
2022-08-28T18:28:38.822Z,13.32
2022-08-28T18:31:08.129Z,12.45
2022-08-28T18:33:36.206Z,13.88
2022-08-28T18:36:06.350Z,12.73
2022-08-28T18:38:33.957Z,13.32
2022-08-28T18:41:01.899Z,13.25
2022-08-28T18:43:29.403Z,13.23
2022-08-28T18:45:56.941Z,13.25
2022-08-28T18:48:26.085Z,13.38
2022-08-28T18:50:54.595Z,12.93
2022-08-28T18:53:23.667Z,13.50
2022-08-28T18:55:52.807Z,12.80
2022-08-28T18:58:21.632Z,13.70
2022-08-28T19:00:49.392Z,13.43
2022-08-28T19:03:16.821Z,13.95
2022-08-28T19:05:45.686Z,13.32
2022-08-28T19:08:13.508Z,13.45
2022-08-28T19:10:41.558Z,15.02
2022-08-28T19:13:09.025Z,14.57
2022-08-28T19:15:36.949Z,14.35
2022-08-28T19:18:05.288Z,13.55
2022-08-28T19:20:33.740Z,14.30
2022-08-28T19:23:02.656Z,14.80
2022-08-28T19:25:30.295Z,13.88
2022-08-28T19:27:59.125Z,12.98
2022-08-28T19:30:29.401Z,13.57
2022-08-28T19:32:57.116Z,13.93
2022-08-28T19:35:25.167Z,13.07
2022-08-28T19:37:53.022Z,14.60
2022-08-28T19:40:22.870Z,14.77
2022-08-28T19:42:50.722Z,16.50
2022-08-28T19:45:18.663Z,16.90
2022-08-28T19:47:46.169Z,17.35
2022-08-28T19:50:14.637Z,17.67
2022-08-28T19:52:42.902Z,17.25
2022-08-28T19:55:14.626Z,17.90
2022-08-28T19:57:43.891Z,17.67
2022-08-28T20:00:12.445Z,18.15
2022-08-28T20:02:39.927Z,17.60
2022-08-28T20:05:08.948Z,18.17
2022-08-28T20:07:36.397Z,17.23
2022-08-28T20:10:04.741Z,18.38
2022-08-28T20:12:32.197Z,17.55
2022-08-28T20:15:03.508Z,18.65
2022-08-28T20:17:31.347Z,17.48
2022-08-28T20:20:02.418Z,16.25
2022-08-28T20:22:30.665Z,17.13
2022-08-28T20:24:58.105Z,17.02
2022-08-28T20:27:25.544Z,17.45
2022-08-28T20:29:52.999Z,16.73
2022-08-28T20:32:21.912Z,15.55
2022-08-28T20:34:49.329Z,15.32
2022-08-28T20:37:16.754Z,15.48
2022-08-28T20:39:44.160Z,14.18
2022-08-28T20:42:11.852Z,15.05
2022-08-28T20:44:39.238Z,15.07
2022-08-28T20:47:07.095Z,13.10
2022-08-28T20:49:39.449Z,13.52
2022-08-28T20:52:07.039Z,13.55
2022-08-28T20:54:36.994Z,13.43
2022-08-28T20:57:07.559Z,13.90
2022-08-28T20:59:40.185Z,13.82
2022-08-28T21:02:10.439Z,13.38
2022-08-28T21:04:40.902Z,13.18
2022-08-28T21:07:08.562Z,13.48
2022-08-28T21:10:03.829Z,12.43
2022-08-28T21:12:23.873Z,12.55
2022-08-28T21:14:52.327Z,13.33
2022-08-28T21:17:28.950Z,12.80
2022-08-28T21:20:00.893Z,12.45
2022-08-28T21:22:29.587Z,11.65
2022-08-28T21:24:57.077Z,12.50
2022-08-28T21:27:25.089Z,11.85
2022-08-28T21:29:55.529Z,12.88
2022-08-28T21:32:22.991Z,11.95
2022-08-28T21:34:50.546Z,11.63
2022-08-28T21:37:19.650Z,12.95
2022-08-28T21:39:47.105Z,12.32
2022-08-28T21:42:14.549Z,12.30
2022-08-28T21:44:43.320Z,12.20
2022-08-28T21:47:19.333Z,12.15
2022-08-28T21:49:48.124Z,11.85
2022-08-28T21:52:15.567Z,12.40
2022-08-28T21:54:44.427Z,11.18
2022-08-28T21:57:11.937Z,11.27
2022-08-28T21:59:39.493Z,11.02
2022-08-28T22:02:07.448Z,11.15
2022-08-28T22:04:35.414Z,11.30
2022-08-28T22:07:02.914Z,10.98
2022-08-28T22:09:30.363Z,10.90
2022-08-28T22:11:59.240Z,10.50
2022-08-28T22:14:26.753Z,10.40
2022-08-28T22:16:54.318Z,10.13
2022-08-28T22:19:21.821Z,10.50
2022-08-28T22:21:49.240Z,10.10
2022-08-28T22:24:16.802Z,9.95
2022-08-28T22:26:44.473Z,10.18
2022-08-28T22:29:13.549Z,10.57
2022-08-28T22:31:41.410Z,9.95
2022-08-28T22:34:13.822Z,10.18
2022-08-28T22:36:41.339Z,9.10
2022-08-28T22:39:08.756Z,9.65
2022-08-28T22:41:36.262Z,10.60
2022-08-28T22:44:04.603Z,10.25
2022-08-28T22:46:33.477Z,9.98
2022-08-28T22:49:00.918Z,10.18
2022-08-28T22:51:28.400Z,10.30
2022-08-28T22:53:56.169Z,10.55
2022-08-28T22:56:23.580Z,10.10
2022-08-28T22:58:51.056Z,10.32
2022-08-28T23:01:22.548Z,10.32
2022-08-28T23:03:52.198Z,10.80
2022-08-28T23:06:19.835Z,9.40
2022-08-28T23:08:47.815Z,12.00
2022-08-28T23:11:15.262Z,10.70
2022-08-28T23:13:42.724Z,11.73
2022-08-28T23:16:10.404Z,11.38
2022-08-28T23:19:06.445Z,10.93
2022-08-28T23:21:27.022Z,15.25
2022-08-28T23:23:55.125Z,13.00
2022-08-28T23:26:23.416Z,14.32
2022-08-28T23:28:51.349Z,14.27
2022-08-28T23:31:19.234Z,14.63
2022-08-28T23:33:46.885Z,14.80
2022-08-28T23:36:15.452Z,15.80
2022-08-28T23:38:46.269Z,14.68
2022-08-28T23:41:13.697Z,14.70
2022-08-28T23:43:41.149Z,14.02
2022-08-28T23:46:09.889Z,13.73
2022-08-28T23:48:41.036Z,14.15
2022-08-28T23:51:09.270Z,13.80
2022-08-28T23:53:37.376Z,13.10
2022-08-28T23:56:06.551Z,12.95
2022-08-28T23:58:35.788Z,13.55
